United Spirit — ELYB2 — position and weather

sailwx.info

Track history (hours):
 
Tides and Currents Weather Stations Pressure Air Temp Water Temp Dewpoint Dewpoint Depression Visibility Wind Speed Wind Dir Waves Ship Positions

United Spirit

Last reported at 2015-Jan-13 05:24 UTC. Time now 2015-Jan-31 11:39 UTC.
Position S 36°24' E 175°22'.
Warning: this ship's position is 18 days out of date.

Type: Cargo ship. MMSI: 636011280.

Date/timePositionNaut miles runAvg speedWind from/ knotsBaromVisibWave heightAir tempDewpointWater temp
2015-Jan-13 05:24S 36°24' E 175°22'1416.7
2015-Jan-13 04:33S 36°31' E 175°07'1515.3
2015-Jan-13 03:33S 36°41' E 174°53'9 9.2
2015-Jan-13 02:34S 36°50' E 174°49'2 2.1
2015-Jan-13 01:33S 36°51' E 174°47'0 0.0
2015-Jan-13 00:30S 36°51' E 174°47'0 0.0
2015-Jan-12 23:31S 36°51' E 174°47'0 0.0
2015-Jan-12 22:31S 36°51' E 174°47'0 0.0
2015-Jan-12 21:31S 36°51' E 174°47'0 0.0
2015-Jan-12 20:31S 36°51' E 174°47'0 0.0
2015-Jan-12 19:30S 36°51' E 174°47'0 0.0
2015-Jan-12 18:30S 36°51' E 174°47'0 0.0
2015-Jan-12 17:30S 36°51' E 174°47'0 0.0
2015-Jan-12 16:30S 36°51' E 174°47'0 0.0
2015-Jan-12 15:30S 36°51' E 174°47'0 0.0
2015-Jan-12 14:30S 36°51' E 174°47'0 0.0
2015-Jan-12 13:30S 36°51' E 174°47'0 0.0
2015-Jan-12 12:30S 36°51' E 174°47'0 0.0
2015-Jan-12 11:30S 36°51' E 174°47'0 0.0
2015-Jan-12 10:30S 36°51' E 174°47'0 0.0
2015-Jan-12 09:30S 36°51' E 174°47'0 0.0
2015-Jan-12 08:30S 36°51' E 174°47'0 0.0
2015-Jan-12 07:30S 36°51' E 174°47'0 0.0
2015-Jan-12 06:30S 36°51' E 174°47'0 0.0
2015-Jan-12 05:30S 36°51' E 174°47'0 0.0
2015-Jan-12 04:12S 36°51' E 174°47'0 0.0
2015-Jan-12 03:06S 36°51' E 174°47'0 0.0
2015-Jan-12 02:06S 36°51' E 174°47'0 0.0
2015-Jan-12 01:12S 36°51' E 174°47'0 0.0
2015-Jan-12 00:30S 36°51' E 174°47'0 0.0
2015-Jan-11 23:30S 36°51' E 174°47'0 0.0
2015-Jan-11 22:24S 36°51' E 174°47'0 0.0
2015-Jan-11 21:33S 36°51' E 174°47'0 0.0
2015-Jan-11 20:18S 36°51' E 174°47'0 0.0
2015-Jan-11 19:30S 36°51' E 174°47'0 0.0
2015-Jan-11 18:30S 36°51' E 174°47'0 0.0
2015-Jan-11 17:30S 36°51' E 174°47'0 0.0
2015-Jan-11 16:30S 36°51' E 174°47'0 0.0
2015-Jan-11 15:33S 36°51' E 174°47'0 0.0
2015-Jan-11 14:30S 36°51' E 174°47'0 0.0
2015-Jan-11 13:33S 36°51' E 174°47'0 0.0
2015-Jan-11 12:24S 36°51' E 174°47'0 0.0
2015-Jan-11 11:30S 36°51' E 174°47'0 0.0
2015-Jan-11 10:30S 36°51' E 174°47'0 0.0
2015-Jan-11 09:30S 36°51' E 174°47'0 0.0
2015-Jan-11 06:24S 36°51' E 174°47'0 0.0
2015-Jan-11 05:06S 36°51' E 174°47'0 0.0
2015-Jan-11 04:06S 36°51' E 174°47'0 0.0
2015-Jan-11 02:12S 36°51' E 174°47'0 0.0
2015-Jan-11 01:16S 36°51' E 174°47'4 5.0
2015-Jan-11 00:33S 36°47' E 174°48'9 9.4
2015-Jan-10 23:33S 36°39' E 174°55'8 7.9
2015-Jan-10 22:33S 36°32' E 174°59'1111.6
2015-Jan-10 21:33S 36°21' E 174°59'  
Track history (hours):
 
Tides and Currents Weather Stations Pressure Air Temp Water Temp Dewpoint Dewpoint Depression Visibility Wind Speed Wind Dir Waves Ship Positions

United Spirit

Last reported at 2015-Jan-13 05:24 UTC. Time now 2015-Jan-31 11:39 UTC.
Position S 36°24' E 175°22'.
Warning: this ship's position is 18 days out of date.

Type: Cargo ship. MMSI: 636011280.

Date/timePositionNaut miles runAvg speedWind from/ knotsBaromVisibWave heightAir tempDewpointWater temp
2015-Jan-13 05:24S 36°24' E 175°22'1416.7
2015-Jan-13 04:33S 36°31' E 175°07'1515.3
2015-Jan-13 03:33S 36°41' E 174°53'9 9.2
2015-Jan-13 02:34S 36°50' E 174°49'2 2.1
2015-Jan-13 01:33S 36°51' E 174°47'0 0.0
2015-Jan-13 00:30S 36°51' E 174°47'0 0.0
2015-Jan-12 23:31S 36°51' E 174°47'0 0.0
2015-Jan-12 22:31S 36°51' E 174°47'0 0.0
2015-Jan-12 21:31S 36°51' E 174°47'0 0.0
2015-Jan-12 20:31S 36°51' E 174°47'0 0.0
2015-Jan-12 19:30S 36°51' E 174°47'0 0.0
2015-Jan-12 18:30S 36°51' E 174°47'0 0.0
2015-Jan-12 17:30S 36°51' E 174°47'0 0.0
2015-Jan-12 16:30S 36°51' E 174°47'0 0.0
2015-Jan-12 15:30S 36°51' E 174°47'0 0.0
2015-Jan-12 14:30S 36°51' E 174°47'0 0.0
2015-Jan-12 13:30S 36°51' E 174°47'0 0.0
2015-Jan-12 12:30S 36°51' E 174°47'0 0.0
2015-Jan-12 11:30S 36°51' E 174°47'0 0.0
2015-Jan-12 10:30S 36°51' E 174°47'0 0.0
2015-Jan-12 09:30S 36°51' E 174°47'0 0.0
2015-Jan-12 08:30S 36°51' E 174°47'0 0.0
2015-Jan-12 07:30S 36°51' E 174°47'0 0.0
2015-Jan-12 06:30S 36°51' E 174°47'0 0.0
2015-Jan-12 05:30S 36°51' E 174°47'0 0.0
2015-Jan-12 04:12S 36°51' E 174°47'0 0.0
2015-Jan-12 03:06S 36°51' E 174°47'0 0.0
2015-Jan-12 02:06S 36°51' E 174°47'0 0.0
2015-Jan-12 01:12S 36°51' E 174°47'0 0.0
2015-Jan-12 00:30S 36°51' E 174°47'0 0.0
2015-Jan-11 23:30S 36°51' E 174°47'0 0.0
2015-Jan-11 22:24S 36°51' E 174°47'0 0.0
2015-Jan-11 21:33S 36°51' E 174°47'0 0.0
2015-Jan-11 20:18S 36°51' E 174°47'0 0.0
2015-Jan-11 19:30S 36°51' E 174°47'0 0.0
2015-Jan-11 18:30S 36°51' E 174°47'0 0.0
2015-Jan-11 17:30S 36°51' E 174°47'0 0.0
2015-Jan-11 16:30S 36°51' E 174°47'0 0.0
2015-Jan-11 15:33S 36°51' E 174°47'0 0.0
2015-Jan-11 14:30S 36°51' E 174°47'0 0.0
2015-Jan-11 13:33S 36°51' E 174°47'0 0.0
2015-Jan-11 12:24S 36°51' E 174°47'0 0.0
2015-Jan-11 11:30S 36°51' E 174°47'0 0.0
2015-Jan-11 10:30S 36°51' E 174°47'0 0.0
2015-Jan-11 09:30S 36°51' E 174°47'0 0.0
2015-Jan-11 06:24S 36°51' E 174°47'0 0.0
2015-Jan-11 05:06S 36°51' E 174°47'0 0.0
2015-Jan-11 04:06S 36°51' E 174°47'0 0.0
2015-Jan-11 02:12S 36°51' E 174°47'0 0.0
2015-Jan-11 01:16S 36°51' E 174°47'4 5.0
2015-Jan-11 00:33S 36°47' E 174°48'9 9.4
2015-Jan-10 23:33S 36°39' E 174°55'8 7.9
2015-Jan-10 22:33S 36°32' E 174°59'1111.6
2015-Jan-10 21:33S 36°21' E 174°59'  

Dump ship's entire track history